Airfield :
LOGIN :

Register | Disclaimer

   EN    FR    IT 

 










Legend :    VFR   Marginal VFR   IFR   Intensive IFR   Very Intensive IFR
Visi :
Ceiling :
>= 8 km
>= 3000ft
5 to 8 km
1000 to 3000 ft
1500m to 5 km
500 to 1000 ft
800 to 1500m
200 to 500 ft
< 800m
< 200 ft
Symbols :   Thunderstorms  Fog  Heavy snow  Heavy precipitations  Wind > 20 kt
SIGMETs :     Misc.  Thunderstorms  Icing  Turbulence  Mountain Waves  Volcanic Ashes






- Airport Elevation : 26 ft
- IATA code : BIA


LFKB - Bastia

CURRENT METAR :
  • 052330Z AUTO 08015KT 9999 OVC060 09/M01 Q1029

EXPIRED METARs :
  • 052300Z AUTO 09014KT 9999 BKN058 OVC070 09/00 Q1029
  • 052230Z AUTO 08013KT 9999 FEW037 BKN056 OVC066 09/01 Q1029
  • 052130Z AUTO 09011KT 9999 FEW048 OVC058 10/02 Q1029 TEMPO FEW030TCU
  • 052100Z AUTO 08014KT 9999 SCT045 OVC054 10/03 Q1028 TEMPO FEW030TCU
  • 052030Z AUTO 09010KT 9999 FEW044 OVC050 10/03 Q1028 TEMPO FEW030TCU

TAF TAF LFKB
Valid from the 05 at 21:00 until the 06 at 21:00 UTC


052000Z 0521/0621 08012KT 9999 BKN040 TX08/0612Z TN04/0606Z
PROB40
TEMPO 0521/0606 09015G25KT SHRA FEW030TCU
BECMG 0619/0621 RA BKN020
ATIS : +33 4 95 59 19 40



MET'MAP, your aeronautical weather chart ! - Copyright ORBIFLY December 2007 - Disclaimer

ORBIFLY MET'MAP TEAM :

Programming & Development : Alexandra Zaïnal
Original concept : Baudouin d'Aumeries
Technical & hardware support : Manuel Goepfert
Assistance : Marc-Olivier Méhu




SOURCES & CREDITS :

   NOAA